PAL43C RPME-RPLL
Flight info
| Callsign | PAL43C |
|---|---|
| Flight time | 1h 11m |
| Altitude | 34000 |
| Route | BAMP1A JARED W14 MCT W11 CONDE CONDE5R |
| Aircraft | A320/M-SDE3FGHIRWY/LB1 |
Departure
| Time | 2026-04-30 11:52 |
|---|---|
| Airport | Bancasi Airport (RPME) |
Arrival
| Time | 2026-04-30 13:04 |
|---|---|
| Airport | Ninoy Aquino International Airport (RPLL) |
| Time | Latitude | Longitude | Altitude | Speed | Heading |
|---|---|---|---|---|---|
| 2026-04-30 11:26 | 8.94867 | 125.48148 | 39 ft | 0 kts | 238° |
| 2026-04-30 11:44 | 8.94872 | 125.48156 | 41 ft | 3 kts | 238° |
| 2026-04-30 11:44 | 8.94882 | 125.48171 | 39 ft | 3 kts | 248° |
| 2026-04-30 11:45 | 8.94884 | 125.48185 | 38 ft | 0 kts | 298° |
| 2026-04-30 11:47 | 8.94894 | 125.48178 | 39 ft | 3 kts | 329° |
| 2026-04-30 11:47 | 8.94926 | 125.48151 | 41 ft | 8 kts | 308° |
| 2026-04-30 11:47 | 8.94967 | 125.48108 | 39 ft | 10 kts | 332° |
| 2026-04-30 11:48 | 8.95040 | 125.48080 | 39 ft | 12 kts | 333° |
| 2026-04-30 11:48 | 8.95089 | 125.48009 | 39 ft | 13 kts | 296° |
| 2026-04-30 11:48 | 8.95131 | 125.47923 | 39 ft | 14 kts | 296° |
| 2026-04-30 11:48 | 8.95178 | 125.47828 | 40 ft | 16 kts | 297° |
| 2026-04-30 11:49 | 8.95229 | 125.47726 | 41 ft | 16 kts | 295° |
| 2026-04-30 11:49 | 8.95279 | 125.47619 | 44 ft | 18 kts | 295° |
| 2026-04-30 11:49 | 8.95338 | 125.47499 | 42 ft | 20 kts | 296° |
| 2026-04-30 11:49 | 8.95403 | 125.47367 | 41 ft | 22 kts | 296° |
| 2026-04-30 11:50 | 8.95474 | 125.47222 | 39 ft | 24 kts | 296° |
| 2026-04-30 11:50 | 8.95555 | 125.47074 | 42 ft | 19 kts | 303° |
| 2026-04-30 11:50 | 8.95606 | 125.47005 | 39 ft | 18 kts | 292° |
| 2026-04-30 11:50 | 8.95588 | 125.46988 | 41 ft | 0 kts | 123° |
| 2026-04-30 11:51 | 8.95572 | 125.47014 | 42 ft | 22 kts | 121° |
| 2026-04-30 11:51 | 8.95418 | 125.47332 | 40 ft | 77 kts | 116° |
| 2026-04-30 11:51 | 8.95228 | 125.47722 | 42 ft | 109 kts | 116° |
| 2026-04-30 11:51 | 8.94698 | 125.48821 | 325 ft | 133 kts | 114° |
| 2026-04-30 11:52 | 8.94459 | 125.49398 | 557 ft | 142 kts | 115° |
| 2026-04-30 11:52 | 8.93964 | 125.50413 | 633 ft | 176 kts | 117° |
| 2026-04-30 11:52 | 8.93354 | 125.51612 | 912 ft | 202 kts | 118° |
| 2026-04-30 11:52 | 8.92689 | 125.52922 | 1346 ft | 218 kts | 117° |
| 2026-04-30 11:53 | 8.92169 | 125.54451 | 1750 ft | 243 kts | 91° |
| 2026-04-30 11:53 | 8.92671 | 125.56089 | 2655 ft | 249 kts | 51° |
| 2026-04-30 11:53 | 8.94063 | 125.57015 | 4046 ft | 243 kts | 17° |
| 2026-04-30 11:53 | 8.95803 | 125.56983 | 4901 ft | 266 kts | 343° |
| 2026-04-30 11:54 | 8.97413 | 125.56003 | 5902 ft | 273 kts | 323° |
| 2026-04-30 11:54 | 8.98845 | 125.54726 | 6897 ft | 278 kts | 321° |
| 2026-04-30 11:54 | 9.00305 | 125.53407 | 7800 ft | 284 kts | 321° |
| 2026-04-30 11:54 | 9.01792 | 125.52067 | 8718 ft | 289 kts | 321° |
| 2026-04-30 11:55 | 9.03319 | 125.50730 | 9638 ft | 292 kts | 326° |
| 2026-04-30 11:55 | 9.04984 | 125.49549 | 10475 ft | 294 kts | 330° |
| 2026-04-30 11:55 | 9.06740 | 125.48470 | 11287 ft | 297 kts | 333° |
| 2026-04-30 11:55 | 9.08480 | 125.47324 | 12118 ft | 301 kts | 323° |
| 2026-04-30 11:56 | 9.09976 | 125.45773 | 12621 ft | 321 kts | 310° |
| 2026-04-30 11:56 | 9.11372 | 125.43876 | 12748 ft | 350 kts | 307° |
| 2026-04-30 11:56 | 9.12822 | 125.41777 | 12903 ft | 377 kts | 306° |
| 2026-04-30 11:56 | 9.14321 | 125.39542 | 13420 ft | 389 kts | 306° |
| 2026-04-30 11:57 | 9.15838 | 125.37259 | 14117 ft | 393 kts | 306° |
| 2026-04-30 11:57 | 9.17375 | 125.34955 | 14805 ft | 397 kts | 306° |
| 2026-04-30 11:57 | 9.18937 | 125.32633 | 15478 ft | 401 kts | 306° |
| 2026-04-30 11:57 | 9.20527 | 125.30298 | 16162 ft | 405 kts | 306° |
| 2026-04-30 11:58 | 9.22143 | 125.27945 | 16833 ft | 409 kts | 306° |
| 2026-04-30 11:58 | 9.23776 | 125.25569 | 17502 ft | 413 kts | 306° |
| 2026-04-30 11:58 | 9.25424 | 125.23166 | 18158 ft | 418 kts | 306° |
| 2026-04-30 11:58 | 9.27090 | 125.20736 | 18725 ft | 422 kts | 306° |
| 2026-04-30 11:59 | 9.28770 | 125.18284 | 19296 ft | 426 kts | 306° |
| 2026-04-30 11:59 | 9.30460 | 125.15810 | 19863 ft | 429 kts | 306° |
| 2026-04-30 11:59 | 9.32166 | 125.13308 | 20390 ft | 434 kts | 306° |
| 2026-04-30 11:59 | 9.33888 | 125.10785 | 20920 ft | 438 kts | 306° |
| 2026-04-30 12:00 | 9.35627 | 125.08242 | 21449 ft | 441 kts | 306° |
| 2026-04-30 12:00 | 9.37383 | 125.05679 | 21982 ft | 444 kts | 306° |
| 2026-04-30 12:00 | 9.39149 | 125.03097 | 22473 ft | 448 kts | 306° |
| 2026-04-30 12:00 | 9.40926 | 125.00493 | 23002 ft | 451 kts | 306° |
| 2026-04-30 12:01 | 9.42716 | 124.97868 | 23498 ft | 455 kts | 306° |
| 2026-04-30 12:01 | 9.44521 | 124.95221 | 23883 ft | 459 kts | 306° |
| 2026-04-30 12:01 | 9.46510 | 124.92708 | 24435 ft | 455 kts | 314° |
| 2026-04-30 12:01 | 9.48658 | 124.90341 | 24859 ft | 459 kts | 314° |
| 2026-04-30 12:02 | 9.50831 | 124.87945 | 25186 ft | 464 kts | 314° |
| 2026-04-30 12:02 | 9.53020 | 124.85528 | 25556 ft | 467 kts | 314° |
| 2026-04-30 12:02 | 9.55220 | 124.83101 | 25928 ft | 469 kts | 314° |
| 2026-04-30 12:02 | 9.57427 | 124.80661 | 26288 ft | 471 kts | 314° |
| 2026-04-30 12:03 | 9.59641 | 124.78210 | 26592 ft | 473 kts | 314° |
| 2026-04-30 12:03 | 9.64099 | 124.73276 | 27146 ft | 476 kts | 314° |
| 2026-04-30 12:03 | 9.66340 | 124.70799 | 27382 ft | 478 kts | 314° |
| 2026-04-30 12:04 | 9.68589 | 124.68312 | 27603 ft | 479 kts | 314° |
| 2026-04-30 12:04 | 9.70844 | 124.65816 | 27800 ft | 481 kts | 314° |
| 2026-04-30 12:04 | 9.73108 | 124.63311 | 27981 ft | 482 kts | 314° |
| 2026-04-30 12:04 | 9.75376 | 124.60801 | 28164 ft | 484 kts | 314° |
| 2026-04-30 12:05 | 9.77653 | 124.58286 | 28344 ft | 485 kts | 314° |
| 2026-04-30 12:05 | 9.79937 | 124.55767 | 28571 ft | 485 kts | 314° |
| 2026-04-30 12:05 | 9.82221 | 124.53249 | 28849 ft | 484 kts | 314° |
| 2026-04-30 12:05 | 9.84499 | 124.50736 | 29148 ft | 484 kts | 314° |
| 2026-04-30 12:06 | 9.86772 | 124.48225 | 29467 ft | 483 kts | 314° |
| 2026-04-30 12:06 | 9.89046 | 124.45713 | 29803 ft | 483 kts | 314° |
| 2026-04-30 12:06 | 9.91316 | 124.43201 | 30116 ft | 483 kts | 314° |
| 2026-04-30 12:06 | 9.93583 | 124.40689 | 30431 ft | 483 kts | 314° |
| 2026-04-30 12:07 | 9.95851 | 124.38178 | 30749 ft | 483 kts | 314° |
| 2026-04-30 12:07 | 9.98121 | 124.35671 | 31064 ft | 482 kts | 314° |
| 2026-04-30 12:07 | 10.00389 | 124.33166 | 31395 ft | 482 kts | 313° |
| 2026-04-30 12:07 | 10.02651 | 124.30667 | 31750 ft | 480 kts | 313° |
| 2026-04-30 12:08 | 10.04910 | 124.28172 | 32094 ft | 480 kts | 313° |
| 2026-04-30 12:08 | 10.07167 | 124.25674 | 32433 ft | 480 kts | 313° |
| 2026-04-30 12:08 | 10.09417 | 124.23177 | 32778 ft | 479 kts | 313° |
| 2026-04-30 12:08 | 10.11666 | 124.20680 | 33128 ft | 479 kts | 313° |
| 2026-04-30 12:09 | 10.13914 | 124.18188 | 33504 ft | 478 kts | 313° |
| 2026-04-30 12:09 | 10.16160 | 124.15699 | 33892 ft | 478 kts | 312° |
| 2026-04-30 12:09 | 10.18401 | 124.13214 | 34237 ft | 477 kts | 312° |
| 2026-04-30 12:09 | 10.20637 | 124.10733 | 34588 ft | 476 kts | 312° |
| 2026-04-30 12:10 | 10.22870 | 124.08257 | 34944 ft | 474 kts | 312° |
| 2026-04-30 12:10 | 10.25093 | 124.05790 | 35280 ft | 473 kts | 313° |
| 2026-04-30 12:10 | 10.27310 | 124.03331 | 35601 ft | 472 kts | 313° |
| 2026-04-30 12:10 | 10.29524 | 124.00874 | 35877 ft | 471 kts | 313° |
| 2026-04-30 12:11 | 10.31878 | 123.98573 | 35957 ft | 467 kts | 321° |
| 2026-04-30 12:11 | 10.37149 | 123.94795 | 35947 ft | 466 kts | 326° |
| 2026-04-30 12:12 | 10.42523 | 123.91079 | 35942 ft | 467 kts | 326° |
| 2026-04-30 12:12 | 10.47893 | 123.87351 | 35940 ft | 468 kts | 326° |
| 2026-04-30 12:13 | 10.53228 | 123.83645 | 35932 ft | 467 kts | 326° |
| 2026-04-30 12:13 | 10.58588 | 123.79914 | 35913 ft | 467 kts | 326° |
| 2026-04-30 12:14 | 10.63945 | 123.76182 | 35914 ft | 467 kts | 326° |
| 2026-04-30 12:14 | 10.69311 | 123.72450 | 35916 ft | 467 kts | 326° |
| 2026-04-30 12:15 | 10.74670 | 123.68732 | 35921 ft | 466 kts | 326° |
| 2026-04-30 12:15 | 10.80058 | 123.64982 | 35922 ft | 466 kts | 326° |
| 2026-04-30 12:16 | 10.85374 | 123.61273 | 35921 ft | 466 kts | 326° |
| 2026-04-30 12:16 | 10.90723 | 123.57543 | 35919 ft | 466 kts | 326° |
| 2026-04-30 12:17 | 10.98746 | 123.51942 | 35916 ft | 466 kts | 326° |
| 2026-04-30 12:17 | 11.04097 | 123.48204 | 35920 ft | 466 kts | 326° |
| 2026-04-30 12:18 | 11.09433 | 123.44476 | 35926 ft | 464 kts | 326° |
| 2026-04-30 12:18 | 11.14759 | 123.40760 | 35915 ft | 465 kts | 326° |
| 2026-04-30 12:19 | 11.20114 | 123.37021 | 35927 ft | 467 kts | 326° |
| 2026-04-30 12:19 | 11.25465 | 123.33278 | 35942 ft | 465 kts | 326° |
| 2026-04-30 12:20 | 11.30797 | 123.29544 | 35908 ft | 467 kts | 326° |
| 2026-04-30 12:20 | 11.36158 | 123.25788 | 35941 ft | 468 kts | 325° |
| 2026-04-30 12:21 | 11.41500 | 123.22051 | 35941 ft | 464 kts | 326° |
| 2026-04-30 12:21 | 11.46818 | 123.18328 | 35925 ft | 464 kts | 325° |
| 2026-04-30 12:22 | 11.52157 | 123.14581 | 35940 ft | 466 kts | 325° |
| 2026-04-30 12:22 | 11.57491 | 123.10847 | 35951 ft | 463 kts | 325° |
| 2026-04-30 12:23 | 11.62801 | 123.07125 | 35928 ft | 464 kts | 325° |
| 2026-04-30 12:23 | 11.68128 | 123.03387 | 35938 ft | 465 kts | 325° |
| 2026-04-30 12:24 | 11.73446 | 122.99648 | 35941 ft | 464 kts | 325° |
| 2026-04-30 12:24 | 11.78759 | 122.95908 | 35936 ft | 464 kts | 325° |
| 2026-04-30 12:25 | 11.84080 | 122.92174 | 35939 ft | 464 kts | 325° |
| 2026-04-30 12:25 | 11.89397 | 122.88433 | 35942 ft | 464 kts | 325° |
| 2026-04-30 12:26 | 11.94716 | 122.84688 | 35937 ft | 465 kts | 325° |
| 2026-04-30 12:26 | 12.00036 | 122.80946 | 35938 ft | 464 kts | 325° |
| 2026-04-30 12:27 | 12.05354 | 122.77197 | 35940 ft | 465 kts | 324° |
| 2026-04-30 12:27 | 12.10679 | 122.73450 | 35943 ft | 465 kts | 324° |
| 2026-04-30 12:28 | 12.16002 | 122.69702 | 35947 ft | 464 kts | 324° |
| 2026-04-30 12:28 | 12.21314 | 122.65944 | 35946 ft | 464 kts | 324° |
| 2026-04-30 12:29 | 12.26634 | 122.62190 | 35945 ft | 465 kts | 324° |
| 2026-04-30 12:29 | 12.31955 | 122.58441 | 35949 ft | 465 kts | 324° |
| 2026-04-30 12:30 | 12.37275 | 122.54685 | 35949 ft | 464 kts | 324° |
| 2026-04-30 12:30 | 12.42562 | 122.50946 | 35952 ft | 461 kts | 324° |
| 2026-04-30 12:31 | 12.47845 | 122.47215 | 35943 ft | 462 kts | 324° |
| 2026-04-30 12:31 | 12.53139 | 122.43468 | 35947 ft | 462 kts | 324° |
| 2026-04-30 12:32 | 12.58424 | 122.39727 | 35946 ft | 462 kts | 324° |
| 2026-04-30 12:32 | 12.63670 | 122.36006 | 35960 ft | 456 kts | 324° |
| 2026-04-30 12:33 | 12.68886 | 122.32309 | 35957 ft | 455 kts | 324° |
| 2026-04-30 12:33 | 12.74080 | 122.28632 | 35960 ft | 453 kts | 324° |
| 2026-04-30 12:34 | 12.79262 | 122.24950 | 35961 ft | 453 kts | 324° |
| 2026-04-30 12:34 | 12.83565 | 122.21896 | 35765 ft | 451 kts | 324° |
| 2026-04-30 12:35 | 12.86137 | 122.20075 | 35423 ft | 449 kts | 324° |
| 2026-04-30 12:35 | 12.88700 | 122.18260 | 35047 ft | 447 kts | 324° |
| 2026-04-30 12:35 | 12.91249 | 122.16453 | 34680 ft | 444 kts | 324° |
| 2026-04-30 12:35 | 12.93785 | 122.14653 | 34319 ft | 443 kts | 324° |
| 2026-04-30 12:36 | 12.96309 | 122.12860 | 33963 ft | 441 kts | 324° |
| 2026-04-30 12:36 | 12.98821 | 122.11073 | 33559 ft | 438 kts | 324° |
| 2026-04-30 12:36 | 13.01317 | 122.09294 | 33153 ft | 435 kts | 324° |
| 2026-04-30 12:36 | 13.03789 | 122.07532 | 32755 ft | 431 kts | 324° |
| 2026-04-30 12:37 | 13.06245 | 122.05784 | 32359 ft | 428 kts | 324° |
| 2026-04-30 12:37 | 13.08687 | 122.04049 | 31972 ft | 426 kts | 324° |
| 2026-04-30 12:37 | 13.11111 | 122.02327 | 31596 ft | 422 kts | 324° |
| 2026-04-30 12:37 | 13.13518 | 122.00616 | 31220 ft | 419 kts | 324° |
| 2026-04-30 12:38 | 13.15905 | 121.98916 | 30848 ft | 416 kts | 324° |
| 2026-04-30 12:38 | 13.18275 | 121.97228 | 30483 ft | 413 kts | 324° |
| 2026-04-30 12:38 | 13.20628 | 121.95550 | 30122 ft | 410 kts | 324° |
| 2026-04-30 12:38 | 13.22965 | 121.93885 | 29720 ft | 408 kts | 324° |
| 2026-04-30 12:39 | 13.25286 | 121.92230 | 29290 ft | 405 kts | 324° |
| 2026-04-30 12:39 | 13.27594 | 121.90583 | 28874 ft | 403 kts | 324° |
| 2026-04-30 12:39 | 13.29889 | 121.88949 | 28464 ft | 400 kts | 324° |
| 2026-04-30 12:39 | 13.32140 | 121.87345 | 28062 ft | 398 kts | 324° |
| 2026-04-30 12:40 | 13.34440 | 121.85704 | 27663 ft | 396 kts | 324° |
| 2026-04-30 12:40 | 13.36696 | 121.84094 | 27270 ft | 394 kts | 325° |
| 2026-04-30 12:40 | 13.38941 | 121.82492 | 26881 ft | 392 kts | 324° |
| 2026-04-30 12:40 | 13.41142 | 121.80922 | 26506 ft | 389 kts | 325° |
| 2026-04-30 12:41 | 13.43360 | 121.79341 | 26125 ft | 387 kts | 324° |
| 2026-04-30 12:41 | 13.45573 | 121.77762 | 25758 ft | 388 kts | 324° |
| 2026-04-30 12:41 | 13.47789 | 121.76180 | 25389 ft | 387 kts | 325° |
| 2026-04-30 12:41 | 13.49998 | 121.74603 | 25030 ft | 386 kts | 325° |
| 2026-04-30 12:42 | 13.52185 | 121.73039 | 24669 ft | 381 kts | 325° |
| 2026-04-30 12:42 | 13.54351 | 121.71487 | 24315 ft | 378 kts | 325° |
| 2026-04-30 12:42 | 13.56519 | 121.69932 | 23970 ft | 381 kts | 325° |
| 2026-04-30 12:42 | 13.58684 | 121.68381 | 23620 ft | 377 kts | 326° |
| 2026-04-30 12:43 | 13.60841 | 121.66837 | 23224 ft | 380 kts | 326° |
| 2026-04-30 12:43 | 13.63010 | 121.65286 | 22814 ft | 379 kts | 326° |
| 2026-04-30 12:43 | 13.65162 | 121.63746 | 22408 ft | 375 kts | 326° |
| 2026-04-30 12:43 | 13.67298 | 121.62216 | 22015 ft | 374 kts | 326° |
| 2026-04-30 12:44 | 13.69351 | 121.60600 | 21624 ft | 370 kts | 319° |
| 2026-04-30 12:44 | 13.71271 | 121.58852 | 21230 ft | 367 kts | 319° |
| 2026-04-30 12:44 | 13.73180 | 121.57109 | 20845 ft | 365 kts | 319° |
| 2026-04-30 12:44 | 13.75067 | 121.55386 | 20466 ft | 360 kts | 320° |
| 2026-04-30 12:45 | 13.77070 | 121.53867 | 20035 ft | 357 kts | 326° |
| 2026-04-30 12:45 | 13.79119 | 121.52418 | 19594 ft | 356 kts | 326° |
| 2026-04-30 12:45 | 13.81154 | 121.50999 | 19250 ft | 351 kts | 326° |
| 2026-04-30 12:45 | 13.83172 | 121.49599 | 18862 ft | 349 kts | 327° |
| 2026-04-30 12:46 | 13.85178 | 121.48208 | 18463 ft | 346 kts | 327° |
| 2026-04-30 12:46 | 13.87169 | 121.46823 | 18038 ft | 345 kts | 327° |
| 2026-04-30 12:46 | 13.89148 | 121.45444 | 17600 ft | 342 kts | 326° |
| 2026-04-30 12:46 | 13.91112 | 121.44073 | 17178 ft | 340 kts | 326° |
| 2026-04-30 12:47 | 13.93058 | 121.42711 | 16771 ft | 337 kts | 326° |
| 2026-04-30 12:47 | 13.94990 | 121.41354 | 16367 ft | 335 kts | 326° |
| 2026-04-30 12:47 | 13.96908 | 121.40008 | 15967 ft | 333 kts | 326° |
| 2026-04-30 12:47 | 13.98814 | 121.38673 | 15575 ft | 330 kts | 326° |
| 2026-04-30 12:48 | 14.00708 | 121.37349 | 15189 ft | 328 kts | 327° |
| 2026-04-30 12:48 | 14.02590 | 121.36037 | 14816 ft | 326 kts | 327° |
| 2026-04-30 12:48 | 14.04458 | 121.34732 | 14447 ft | 324 kts | 326° |
| 2026-04-30 12:48 | 14.06316 | 121.33431 | 14088 ft | 321 kts | 326° |
| 2026-04-30 12:49 | 14.08160 | 121.32137 | 13681 ft | 321 kts | 327° |
| 2026-04-30 12:49 | 14.10001 | 121.30844 | 13283 ft | 319 kts | 327° |
| 2026-04-30 12:49 | 14.11831 | 121.29562 | 12872 ft | 317 kts | 327° |
| 2026-04-30 12:49 | 14.13650 | 121.28287 | 12526 ft | 314 kts | 327° |
| 2026-04-30 12:50 | 14.15294 | 121.26866 | 12416 ft | 305 kts | 309° |
| 2026-04-30 12:50 | 14.16233 | 121.24955 | 12296 ft | 297 kts | 284° |
| 2026-04-30 12:50 | 14.16594 | 121.22885 | 12075 ft | 292 kts | 278° |
| 2026-04-30 12:50 | 14.16861 | 121.20801 | 11724 ft | 293 kts | 277° |
| 2026-04-30 12:51 | 14.17113 | 121.18725 | 11403 ft | 292 kts | 277° |
| 2026-04-30 12:51 | 14.17354 | 121.16700 | 11113 ft | 291 kts | 277° |
| 2026-04-30 12:51 | 14.17604 | 121.14580 | 10817 ft | 290 kts | 277° |
| 2026-04-30 12:51 | 14.17846 | 121.12530 | 10553 ft | 287 kts | 277° |
| 2026-04-30 12:52 | 14.18084 | 121.10491 | 10319 ft | 284 kts | 277° |
| 2026-04-30 12:52 | 14.18314 | 121.08504 | 10189 ft | 276 kts | 277° |
| 2026-04-30 12:52 | 14.18537 | 121.06553 | 9981 ft | 273 kts | 277° |
| 2026-04-30 12:52 | 14.18753 | 121.04621 | 9774 ft | 270 kts | 277° |
| 2026-04-30 12:53 | 14.18963 | 121.02706 | 9545 ft | 268 kts | 277° |
| 2026-04-30 12:53 | 14.19175 | 121.00811 | 9359 ft | 264 kts | 277° |
| 2026-04-30 12:53 | 14.19380 | 120.98945 | 9117 ft | 262 kts | 277° |
| 2026-04-30 12:53 | 14.19574 | 120.97076 | 8876 ft | 261 kts | 277° |
| 2026-04-30 12:54 | 14.19773 | 120.95239 | 8691 ft | 257 kts | 277° |
| 2026-04-30 12:54 | 14.19970 | 120.93431 | 8410 ft | 258 kts | 277° |
| 2026-04-30 12:54 | 14.20164 | 120.91589 | 8120 ft | 259 kts | 277° |
| 2026-04-30 12:54 | 14.20356 | 120.89737 | 7832 ft | 261 kts | 277° |
| 2026-04-30 12:55 | 14.20733 | 120.87924 | 7566 ft | 258 kts | 298° |
| 2026-04-30 12:55 | 14.21818 | 120.86500 | 7269 ft | 251 kts | 322° |
| 2026-04-30 12:55 | 14.23182 | 120.85396 | 6942 ft | 249 kts | 326° |
| 2026-04-30 12:55 | 14.24576 | 120.84350 | 6627 ft | 248 kts | 327° |
| 2026-04-30 12:56 | 14.25967 | 120.83307 | 6297 ft | 247 kts | 327° |
| 2026-04-30 12:56 | 14.27350 | 120.82262 | 5945 ft | 246 kts | 327° |
| 2026-04-30 12:56 | 14.28740 | 120.81213 | 5507 ft | 249 kts | 327° |
| 2026-04-30 12:56 | 14.30108 | 120.80181 | 5383 ft | 239 kts | 327° |
| 2026-04-30 12:57 | 14.31430 | 120.79183 | 5171 ft | 234 kts | 327° |
| 2026-04-30 12:57 | 14.32757 | 120.78182 | 4646 ft | 244 kts | 327° |
| 2026-04-30 12:57 | 14.34276 | 120.77383 | 4051 ft | 248 kts | 351° |
| 2026-04-30 12:57 | 14.35967 | 120.77418 | 3737 ft | 239 kts | 19° |
| 2026-04-30 12:58 | 14.37380 | 120.78180 | 3612 ft | 224 kts | 44° |
| 2026-04-30 12:58 | 14.38314 | 120.79396 | 3480 ft | 213 kts | 61° |
| 2026-04-30 12:58 | 14.39038 | 120.80698 | 3360 ft | 205 kts | 62° |
| 2026-04-30 12:58 | 14.39736 | 120.81955 | 3234 ft | 199 kts | 61° |
| 2026-04-30 12:59 | 14.40411 | 120.83169 | 3113 ft | 192 kts | 62° |
| 2026-04-30 12:59 | 14.41065 | 120.84342 | 2987 ft | 186 kts | 62° |
| 2026-04-30 12:59 | 14.41701 | 120.85484 | 2826 ft | 182 kts | 62° |
| 2026-04-30 12:59 | 14.42309 | 120.86575 | 2787 ft | 171 kts | 62° |
| 2026-04-30 13:00 | 14.42887 | 120.87615 | 2607 ft | 168 kts | 62° |
| 2026-04-30 13:00 | 14.43466 | 120.88654 | 2399 ft | 165 kts | 62° |
| 2026-04-30 13:00 | 14.44036 | 120.89677 | 2196 ft | 162 kts | 62° |
| 2026-04-30 13:00 | 14.44590 | 120.90674 | 1990 ft | 159 kts | 62° |
| 2026-04-30 13:01 | 14.45141 | 120.91664 | 1792 ft | 159 kts | 62° |
| 2026-04-30 13:01 | 14.45693 | 120.92655 | 1588 ft | 159 kts | 64° |
| 2026-04-30 13:01 | 14.46248 | 120.93653 | 1374 ft | 163 kts | 63° |
| 2026-04-30 13:01 | 14.46807 | 120.94658 | 1176 ft | 159 kts | 63° |
| 2026-04-30 13:02 | 14.47335 | 120.95604 | 992 ft | 143 kts | 63° |
| 2026-04-30 13:02 | 14.47818 | 120.96472 | 821 ft | 140 kts | 62° |
| 2026-04-30 13:02 | 14.48295 | 120.97332 | 660 ft | 138 kts | 63° |
| 2026-04-30 13:02 | 14.48783 | 120.98209 | 473 ft | 142 kts | 64° |
| 2026-04-30 13:03 | 14.49267 | 120.99079 | 288 ft | 138 kts | 63° |
| 2026-04-30 13:03 | 14.49750 | 120.99948 | 116 ft | 140 kts | 63° |
| 2026-04-30 13:03 | 14.50273 | 121.00891 | 63 ft | 118 kts | 71° |
| 2026-04-30 13:03 | 14.50550 | 121.01392 | 66 ft | 70 kts | 62° |
| 2026-04-30 13:04 | 14.50797 | 121.01739 | 69 ft | 42 kts | 30° |
| 2026-04-30 13:04 | 14.50855 | 121.01782 | 67 ft | 1 kts | 34° |
| 2026-04-30 13:04 | 14.50857 | 121.01784 | 69 ft | 0 kts | 34° |
| 2026-04-30 13:04 | 14.50860 | 121.01785 | 69 ft | 1 kts | 34° |
| 2026-04-30 13:05 | 14.50883 | 121.01784 | 63 ft | 4 kts | 340° |
| 2026-04-30 13:05 | 14.50896 | 121.01763 | 61 ft | 3 kts | 284° |
| 2026-04-30 13:05 | 14.50893 | 121.01736 | 66 ft | 4 kts | 253° |
| 2026-04-30 13:06 | 14.50883 | 121.01688 | 65 ft | 0 kts | 278° |
| 2026-04-30 13:07 | 14.50883 | 121.01687 | 65 ft | 0 kts | 279° |
| 2026-04-30 13:07 | 14.50884 | 121.01684 | 65 ft | 3 kts | 286° |
| 2026-04-30 13:07 | 14.50923 | 121.01636 | 63 ft | 7 kts | 314° |
| 2026-04-30 13:07 | 14.50958 | 121.01599 | 70 ft | 8 kts | 314° |
| 2026-04-30 13:08 | 14.50997 | 121.01558 | 61 ft | 8 kts | 313° |
| 2026-04-30 13:08 | 14.51002 | 121.01504 | 70 ft | 8 kts | 252° |
| 2026-04-30 13:08 | 14.50987 | 121.01450 | 69 ft | 8 kts | 255° |
| 2026-04-30 13:08 | 14.50984 | 121.01436 | 67 ft | 0 kts | 254° |